Hauptseite
METAR-TAF:

METAR-TAF

Flughäfen :

Flughafen Stuttgart

Stuttgart, Deutschland

Breite: 48-41N, Länge: 009-13E, Höhe: 396 m

Beobachtung

Neuester Wetterbericht von vor 38 Minuten, um 01:20 UTC
Wind 6 kt aus West
Temperatur 1°C
Luftfeuchtigkeit 75%
Luftdruck 1013 hPa
Sichtweite 10 km oder mehr
keine Wolken unter 1500 m und keine Kumulonimbus oder Gewitterwolken

METAR: EDDS 030120Z 28006KT CAVOK 01/M03 Q1013

Zeit: 03:58 (01:58 UTC)

Prognose

Neuester Wetterbericht von vor 2 Stunden und 58 Minuten, um 23:00 UTC
Gültige Prognose vom 03 um 00 UTC bis 03 um 24 UTC
Wind 5 kt aus West/Südwest
Sichtweite 10 km oder mehr
Aufgelockert bewölkt in der Höhe von 4000 ft

TAF: EDDS 022300Z 0300/0324 25005KT 9999 SCT040

Wetterbeobachtungen und Prognosen von mehr als 4000 Flughäfen (METAR und TAF Bericht).

Die verfügbaren Stationen werden durch gelbe und rote Markierungen auf der Karte dargestellt.

Führen Sie die Maus auf sie, um den Namen der Station zu sehen.

Darauf klicken, um die Beobachtung von Wetterbeobachtungen und Prognosen zu sehen.

Um die Karte zu ändern : klicken Sie auf den grünen Tasten mit einem schwarzen Kreuz Zum Vergrößern, auf den grünen Button mit einem Gedankenstrich zu verkleinern, oder auf die grünen Pfeile für benachbarte Karten.


METAR-TAF: